createdAt,value
2018-11-06T00:02:15.813Z,9.63
2018-11-06T00:04:48.628Z,9.37
2018-11-06T00:07:15.710Z,9.47
2018-11-06T00:09:42.904Z,8.87
2018-11-06T00:12:09.963Z,8.87
2018-11-06T00:14:37.105Z,8.80
2018-11-06T00:17:04.342Z,8.97
2018-11-06T00:19:31.428Z,9.90
2018-11-06T00:21:58.523Z,10.20
2018-11-06T00:24:25.614Z,9.30
2018-11-06T00:26:52.703Z,10.20
2018-11-06T00:29:19.800Z,9.27
2018-11-06T00:31:46.875Z,9.00
2018-11-06T00:34:14.203Z,9.00
2018-11-06T00:36:41.272Z,8.87
2018-11-06T00:39:08.864Z,8.80
2018-11-06T00:41:35.947Z,9.27
2018-11-06T00:44:03.240Z,8.73
2018-11-06T00:46:30.319Z,9.03
2018-11-06T00:48:57.476Z,9.90
2018-11-06T00:51:24.595Z,8.17
2018-11-06T00:53:51.723Z,9.00
2018-11-06T00:56:18.789Z,8.63
2018-11-06T00:58:45.884Z,8.13
2018-11-06T01:01:13.016Z,8.37
2018-11-06T01:03:45.751Z,7.87
2018-11-06T01:06:12.859Z,8.07
2018-11-06T01:08:39.934Z,8.73
2018-11-06T01:11:07.007Z,8.77
2018-11-06T01:13:34.107Z,7.80
2018-11-06T01:16:01.191Z,8.40
2018-11-06T01:18:28.316Z,8.20
2018-11-06T01:20:55.404Z,7.83
2018-11-06T01:23:22.490Z,8.00
2018-11-06T01:25:49.569Z,8.53
2018-11-06T01:28:16.663Z,8.53
2018-11-06T01:30:43.747Z,8.37
2018-11-06T01:33:10.856Z,8.70
2018-11-06T01:35:37.947Z,7.53
2018-11-06T01:38:05.212Z,7.20
2018-11-06T01:43:05.102Z,8.07
2018-11-06T01:45:32.194Z,7.63
2018-11-06T01:47:59.291Z,7.87
2018-11-06T01:50:26.373Z,8.00
2018-11-06T01:52:53.443Z,8.13
2018-11-06T01:55:20.542Z,8.07
2018-11-06T01:57:47.648Z,7.63
2018-11-06T02:00:15.958Z,7.50
2018-11-06T02:02:43.059Z,7.70
2018-11-06T02:05:11.690Z,7.80
2018-11-06T02:07:39.075Z,8.37
2018-11-06T02:10:06.926Z,7.47
2018-11-06T02:12:34.012Z,8.13
2018-11-06T02:15:01.106Z,7.73
2018-11-06T02:17:28.195Z,7.60
2018-11-06T02:19:55.279Z,8.33
2018-11-06T02:22:22.354Z,8.10
2018-11-06T02:24:49.427Z,7.83
2018-11-06T02:27:16.534Z,7.73
2018-11-06T02:29:43.617Z,7.40
2018-11-06T02:32:10.799Z,7.40
2018-11-06T02:34:37.872Z,7.80
2018-11-06T02:37:04.943Z,7.47
2018-11-06T02:39:32.030Z,7.50
2018-11-06T02:41:59.124Z,7.60
2018-11-06T02:44:26.207Z,8.27
2018-11-06T02:46:53.500Z,7.50
2018-11-06T02:49:20.575Z,7.20
2018-11-06T02:51:47.647Z,7.40
2018-11-06T02:54:14.778Z,7.23
2018-11-06T02:56:41.848Z,7.57
2018-11-06T02:59:08.920Z,7.77
2018-11-06T03:01:36.031Z,7.33
2018-11-06T03:04:03.089Z,7.43
2018-11-06T03:06:30.192Z,7.30
2018-11-06T03:08:57.251Z,7.40
2018-11-06T03:11:24.340Z,7.43
2018-11-06T03:13:51.433Z,6.80
2018-11-06T03:16:18.545Z,7.57
2018-11-06T03:18:45.635Z,7.23
2018-11-06T03:21:12.716Z,7.20
2018-11-06T03:23:39.813Z,6.97
2018-11-06T03:26:06.880Z,7.80
2018-11-06T03:28:33.990Z,7.53
2018-11-06T03:31:01.067Z,7.27
2018-11-06T03:33:28.164Z,7.73
2018-11-06T03:35:55.276Z,7.17
2018-11-06T03:38:22.364Z,7.33
2018-11-06T03:40:49.448Z,7.73
2018-11-06T03:43:16.548Z,7.20
2018-11-06T03:45:43.627Z,7.27
2018-11-06T03:48:10.716Z,7.07
2018-11-06T03:50:37.783Z,7.33
2018-11-06T03:53:04.895Z,6.83
2018-11-06T03:55:32.046Z,7.20
2018-11-06T03:57:59.113Z,7.60
2018-11-06T04:00:26.196Z,7.47
2018-11-06T04:02:53.284Z,7.20
2018-11-06T04:05:20.570Z,7.23
2018-11-06T04:07:47.672Z,8.13
2018-11-06T04:10:14.744Z,7.07
2018-11-06T04:12:42.033Z,7.60
2018-11-06T04:15:09.876Z,7.17
2018-11-06T04:17:37.007Z,6.77
2018-11-06T04:20:04.655Z,6.70
2018-11-06T04:22:31.751Z,7.87
2018-11-06T04:24:58.823Z,7.80
2018-11-06T04:27:25.928Z,7.43
2018-11-06T04:29:53.024Z,7.60
2018-11-06T04:32:20.174Z,7.47
2018-11-06T04:34:47.306Z,7.40
2018-11-06T04:37:14.395Z,7.23
2018-11-06T04:39:41.482Z,7.50
2018-11-06T04:42:08.572Z,6.93
2018-11-06T04:44:35.664Z,7.30
2018-11-06T04:47:02.755Z,7.20
2018-11-06T04:49:29.839Z,7.50
2018-11-06T04:51:56.905Z,7.83
2018-11-06T04:54:23.990Z,8.03
2018-11-06T04:56:51.098Z,6.67
2018-11-06T04:59:18.214Z,7.40
2018-11-06T05:01:45.303Z,7.63
2018-11-06T05:04:12.454Z,6.73
2018-11-06T05:06:39.574Z,6.80
2018-11-06T05:09:07.342Z,6.87
2018-11-06T05:11:34.438Z,7.23
2018-11-06T05:14:01.532Z,7.60
2018-11-06T05:16:28.607Z,7.07
2018-11-06T05:18:55.698Z,7.20
2018-11-06T05:21:22.788Z,6.43
2018-11-06T05:23:49.884Z,7.30
2018-11-06T05:26:17.000Z,6.87
2018-11-06T05:28:44.087Z,7.53
2018-11-06T05:31:11.175Z,7.50
2018-11-06T05:33:38.260Z,7.50
2018-11-06T05:36:05.372Z,7.17
2018-11-06T05:38:32.471Z,7.37
2018-11-06T05:41:02.876Z,7.23
2018-11-06T05:43:29.989Z,7.20
2018-11-06T05:45:57.144Z,7.30
2018-11-06T05:48:24.256Z,7.23
2018-11-06T05:50:51.345Z,7.23
2018-11-06T05:53:18.764Z,7.13
2018-11-06T05:55:45.951Z,7.33
2018-11-06T05:58:13.044Z,8.30
2018-11-06T06:00:40.326Z,7.77
2018-11-06T06:03:07.490Z,7.30
2018-11-06T06:05:34.666Z,7.50
2018-11-06T06:08:01.755Z,8.00
2018-11-06T06:10:28.840Z,7.13
2018-11-06T06:12:55.934Z,7.40
2018-11-06T06:15:23.019Z,6.87
2018-11-06T06:17:50.203Z,7.83
2018-11-06T06:20:17.305Z,7.93
2018-11-06T06:22:44.391Z,7.63
2018-11-06T06:25:11.483Z,8.00
2018-11-06T06:27:38.563Z,7.47
2018-11-06T06:30:08.639Z,7.80
2018-11-06T06:32:35.732Z,7.00
2018-11-06T06:35:02.864Z,7.53
2018-11-06T06:37:29.900Z,7.60
2018-11-06T06:39:57.110Z,7.90
2018-11-06T06:42:24.212Z,7.63
2018-11-06T06:44:51.331Z,7.27
2018-11-06T06:47:18.428Z,7.83
2018-11-06T06:49:45.537Z,7.90
2018-11-06T06:52:12.642Z,7.40
2018-11-06T06:54:39.834Z,7.50
2018-11-06T06:57:06.843Z,8.40
2018-11-06T06:59:33.930Z,7.53
2018-11-06T07:02:01.015Z,7.80
2018-11-06T07:04:28.104Z,7.73
2018-11-06T07:06:55.210Z,7.67
2018-11-06T07:09:22.281Z,7.20
2018-11-06T07:11:49.374Z,7.70
2018-11-06T07:14:16.459Z,8.37
2018-11-06T07:16:43.593Z,7.87
2018-11-06T07:19:10.766Z,7.80
2018-11-06T07:21:37.844Z,8.87
2018-11-06T07:24:05.146Z,7.63
2018-11-06T07:26:32.811Z,8.70
2018-11-06T07:28:59.991Z,7.90
2018-11-06T07:31:26.976Z,8.50
2018-11-06T07:33:54.195Z,8.07
2018-11-06T07:36:21.280Z,8.50
2018-11-06T07:38:48.383Z,8.07
2018-11-06T07:41:15.551Z,8.60
2018-11-06T07:43:42.611Z,8.37
2018-11-06T07:46:09.851Z,8.67
2018-11-06T07:48:36.930Z,8.80
2018-11-06T07:51:04.070Z,9.00
2018-11-06T07:53:31.261Z,9.50
2018-11-06T07:55:58.366Z,8.97
2018-11-06T07:58:25.447Z,8.23
2018-11-06T08:00:52.543Z,9.17
2018-11-06T08:03:19.634Z,8.77
2018-11-06T08:05:46.723Z,8.70
2018-11-06T08:08:13.815Z,8.73
2018-11-06T08:10:40.907Z,9.43
2018-11-06T08:13:07.987Z,9.37
2018-11-06T08:15:35.074Z,8.97
2018-11-06T08:18:02.234Z,8.73
2018-11-06T08:20:29.326Z,8.87
2018-11-06T08:22:56.438Z,9.00
2018-11-06T08:25:23.525Z,8.87
2018-11-06T08:27:50.641Z,9.10
2018-11-06T08:30:17.716Z,8.73
2018-11-06T08:32:45.199Z,8.33
2018-11-06T08:35:13.423Z,9.20
2018-11-06T08:37:40.758Z,8.70
2018-11-06T08:40:08.518Z,8.67
2018-11-06T08:42:36.007Z,8.43
2018-11-06T08:45:04.159Z,9.40
2018-11-06T08:47:31.263Z,8.33
2018-11-06T08:49:58.364Z,8.97
2018-11-06T08:52:25.463Z,9.17
2018-11-06T08:54:52.565Z,8.77
2018-11-06T08:57:19.663Z,8.30
2018-11-06T08:59:46.751Z,8.80
2018-11-06T09:02:14.116Z,9.50
2018-11-06T09:04:41.203Z,8.70
2018-11-06T09:07:08.280Z,8.87
2018-11-06T09:09:35.348Z,9.17
2018-11-06T09:12:02.457Z,9.03
2018-11-06T09:14:29.545Z,9.23
2018-11-06T09:16:56.715Z,8.60
2018-11-06T09:19:23.780Z,8.37
2018-11-06T09:21:50.875Z,9.07
2018-11-06T09:24:17.963Z,9.57
2018-11-06T09:26:45.025Z,9.37
2018-11-06T09:29:12.120Z,9.57
2018-11-06T09:31:39.220Z,8.80
2018-11-06T09:34:06.294Z,9.13
2018-11-06T09:36:33.388Z,9.00
2018-11-06T09:39:00.524Z,9.00
2018-11-06T09:41:27.699Z,8.47
2018-11-06T09:43:54.716Z,8.60
2018-11-06T09:46:22.189Z,8.93
2018-11-06T09:48:49.333Z,9.87
2018-11-06T09:51:16.413Z,8.87
2018-11-06T09:53:43.507Z,8.90
2018-11-06T09:56:10.608Z,8.53
2018-11-06T09:58:37.703Z,9.40
2018-11-06T10:01:04.825Z,8.57
2018-11-06T10:03:31.917Z,9.07
2018-11-06T10:05:59.048Z,9.20
2018-11-06T10:08:26.086Z,8.97
2018-11-06T10:10:53.147Z,9.00
2018-11-06T10:13:20.259Z,8.47
2018-11-06T10:15:47.388Z,8.80
2018-11-06T10:18:14.472Z,9.10
2018-11-06T10:20:41.564Z,8.40
2018-11-06T10:23:08.658Z,8.73
2018-11-06T10:25:35.778Z,9.20
2018-11-06T10:28:02.885Z,8.80
2018-11-06T10:30:29.990Z,9.20
2018-11-06T10:32:57.092Z,9.47
2018-11-06T10:35:24.194Z,8.70
2018-11-06T10:37:51.331Z,9.07
2018-11-06T10:40:19.885Z,8.93
2018-11-06T10:42:47.141Z,9.20
2018-11-06T10:45:14.278Z,9.07
2018-11-06T10:47:41.339Z,8.20
2018-11-06T10:50:09.566Z,9.03
2018-11-06T10:52:36.746Z,8.63
2018-11-06T10:55:04.467Z,8.87
2018-11-06T10:57:31.561Z,8.60
2018-11-06T10:59:58.704Z,8.50
2018-11-06T11:02:31.672Z,8.67
2018-11-06T11:04:58.765Z,9.50
2018-11-06T11:07:25.863Z,9.13
2018-11-06T11:09:52.948Z,8.63
2018-11-06T11:12:20.026Z,8.47
2018-11-06T11:14:47.095Z,8.33
2018-11-06T11:17:14.217Z,8.50
2018-11-06T11:19:41.287Z,8.50
2018-11-06T11:22:08.398Z,7.97
2018-11-06T11:24:35.474Z,8.67
2018-11-06T11:27:02.571Z,9.00
2018-11-06T11:29:29.650Z,8.70
2018-11-06T11:31:56.748Z,8.27
2018-11-06T11:34:23.847Z,8.30
2018-11-06T11:36:50.943Z,8.53
2018-11-06T11:39:18.044Z,9.60
2018-11-06T11:41:45.154Z,9.10
2018-11-06T11:44:12.240Z,8.60
2018-11-06T11:46:39.352Z,8.03
2018-11-06T11:49:06.445Z,8.47
2018-11-06T11:51:33.547Z,8.50
2018-11-06T11:54:00.648Z,8.50
2018-11-06T11:56:27.839Z,8.73
2018-11-06T11:58:55.044Z,8.23
2018-11-06T12:01:22.144Z,9.07
2018-11-06T12:03:49.246Z,8.60
2018-11-06T12:06:16.322Z,8.60
2018-11-06T12:08:43.431Z,8.30
2018-11-06T12:11:10.497Z,8.53
2018-11-06T12:13:37.615Z,8.60
2018-11-06T12:16:04.759Z,8.33
2018-11-06T12:18:31.837Z,8.50
2018-11-06T12:20:58.935Z,9.07
2018-11-06T12:23:26.011Z,8.40
2018-11-06T12:25:53.267Z,8.37
2018-11-06T12:28:20.191Z,8.23
2018-11-06T12:30:47.319Z,8.07
2018-11-06T12:33:14.453Z,8.90
2018-11-06T12:35:41.518Z,8.60
2018-11-06T12:38:08.593Z,8.03
2018-11-06T12:40:35.670Z,8.00
2018-11-06T12:43:02.832Z,8.37
2018-11-06T12:45:29.880Z,7.50
2018-11-06T12:47:56.939Z,8.53
2018-11-06T12:50:24.126Z,8.60
2018-11-06T12:52:51.166Z,9.30
2018-11-06T12:55:18.286Z,7.60
2018-11-06T12:57:45.399Z,8.67
2018-11-06T13:00:14.911Z,8.07
2018-11-06T13:02:42.013Z,8.20
2018-11-06T13:05:09.431Z,8.23
2018-11-06T13:07:37.595Z,8.37
2018-11-06T13:10:04.757Z,9.00
2018-11-06T13:12:31.811Z,8.23
2018-11-06T13:14:59.321Z,7.97
2018-11-06T13:17:26.013Z,8.33
2018-11-06T13:19:53.111Z,8.70
2018-11-06T13:22:20.232Z,8.73
2018-11-06T13:24:47.332Z,8.67
2018-11-06T13:27:14.443Z,7.90
2018-11-06T13:29:41.608Z,7.83
2018-11-06T13:32:08.768Z,8.20
2018-11-06T13:34:35.872Z,8.13
2018-11-06T13:37:02.971Z,8.03
2018-11-06T13:39:30.035Z,7.87
2018-11-06T13:41:57.183Z,7.80
2018-11-06T13:44:24.643Z,8.40
2018-11-06T13:46:51.341Z,8.30
2018-11-06T13:49:18.425Z,8.00
2018-11-06T13:51:45.500Z,8.73
2018-11-06T13:54:12.585Z,8.30
2018-11-06T13:56:39.666Z,8.10
2018-11-06T13:59:06.735Z,8.30
2018-11-06T14:01:33.819Z,9.30
2018-11-06T14:04:00.902Z,8.10
2018-11-06T14:06:27.983Z,8.43
2018-11-06T14:08:55.117Z,8.87
2018-11-06T14:11:22.220Z,8.53
2018-11-06T14:13:49.297Z,7.80
2018-11-06T14:16:16.393Z,8.43
2018-11-06T14:18:43.482Z,8.00
2018-11-06T14:21:10.649Z,8.60
2018-11-06T14:23:37.763Z,7.97
2018-11-06T14:26:05.038Z,8.57
2018-11-06T14:28:32.119Z,8.53
2018-11-06T14:30:59.203Z,8.20
2018-11-06T14:33:26.301Z,8.13
2018-11-06T14:35:53.424Z,8.17
2018-11-06T14:38:20.486Z,8.10
2018-11-06T14:40:47.576Z,8.67
2018-11-06T14:43:14.670Z,8.67
2018-11-06T14:45:41.746Z,8.03
2018-11-06T14:48:08.872Z,8.23
2018-11-06T14:50:35.914Z,8.00
2018-11-06T14:53:02.992Z,7.87
2018-11-06T14:55:30.106Z,8.57
2018-11-06T14:57:57.200Z,8.30
2018-11-06T15:00:24.296Z,8.27
2018-11-06T15:02:52.350Z,8.53
2018-11-06T15:05:20.200Z,7.93
2018-11-06T15:07:47.310Z,8.13
2018-11-06T15:10:14.464Z,7.63
2018-11-06T15:12:41.814Z,7.83
2018-11-06T15:15:09.895Z,8.40
2018-11-06T15:17:37.025Z,7.97
2018-11-06T15:20:06.064Z,8.33
2018-11-06T15:22:33.163Z,8.60
2018-11-06T15:25:00.231Z,7.97
2018-11-06T15:27:27.316Z,7.93
2018-11-06T15:29:54.480Z,7.60
2018-11-06T15:32:21.699Z,8.33
2018-11-06T15:34:48.688Z,8.87
2018-11-06T15:37:15.808Z,7.63
2018-11-06T15:39:42.867Z,8.00
2018-11-06T15:42:10.060Z,8.13
2018-11-06T15:44:37.038Z,8.30
2018-11-06T15:47:04.375Z,8.30
2018-11-06T15:49:31.480Z,8.47
2018-11-06T15:51:58.628Z,8.10
2018-11-06T15:54:25.718Z,7.97
2018-11-06T15:56:52.804Z,7.83
2018-11-06T15:59:19.909Z,8.03
2018-11-06T16:01:47.043Z,7.90
2018-11-06T16:04:14.135Z,8.53
2018-11-06T16:06:41.240Z,8.50
2018-11-06T16:09:08.314Z,8.80
2018-11-06T16:11:35.399Z,9.13
2018-11-06T16:14:02.484Z,8.43
2018-11-06T16:16:29.584Z,9.20
2018-11-06T16:18:56.717Z,9.17
2018-11-06T16:21:23.775Z,9.20
2018-11-06T16:23:50.839Z,8.73
2018-11-06T16:26:17.919Z,8.80
2018-11-06T16:28:45.003Z,8.80
2018-11-06T16:31:12.079Z,8.53
2018-11-06T16:33:39.139Z,8.80
2018-11-06T16:36:06.246Z,8.50
2018-11-06T16:38:33.343Z,8.80
2018-11-06T16:41:00.432Z,8.77
2018-11-06T16:43:27.538Z,9.83
2018-11-06T16:45:54.644Z,9.27
2018-11-06T16:48:21.814Z,9.80
2018-11-06T16:50:48.860Z,9.50
2018-11-06T16:53:15.959Z,9.60
2018-11-06T16:55:43.043Z,9.43
2018-11-06T16:58:10.136Z,9.73
2018-11-06T17:00:37.290Z,9.77
2018-11-06T17:03:04.387Z,8.67
2018-11-06T17:05:31.455Z,9.40
2018-11-06T17:07:58.530Z,10.20
2018-11-06T17:10:25.627Z,9.57
2018-11-06T17:12:52.730Z,10.27
2018-11-06T17:15:20.991Z,9.90
2018-11-06T17:17:48.979Z,9.03
2018-11-06T17:20:16.291Z,9.93
2018-11-06T17:22:43.383Z,9.90
2018-11-06T17:25:14.651Z,9.63
2018-11-06T17:27:41.771Z,9.60
2018-11-06T17:30:10.636Z,9.83
2018-11-06T17:32:38.424Z,9.70
2018-11-06T17:35:06.780Z,8.73
2018-11-06T17:37:33.864Z,9.30
2018-11-06T17:40:00.968Z,10.33
2018-11-06T17:42:28.070Z,9.70
2018-11-06T17:44:55.148Z,9.87
2018-11-06T17:47:22.243Z,9.77
2018-11-06T17:49:49.336Z,9.23
2018-11-06T17:52:16.436Z,9.50
2018-11-06T17:54:43.542Z,9.77
2018-11-06T17:57:10.704Z,10.47
2018-11-06T17:59:37.828Z,9.87
2018-11-06T18:02:05.413Z,9.97
2018-11-06T18:04:32.687Z,10.33
2018-11-06T18:06:59.559Z,9.17
2018-11-06T18:09:26.654Z,9.50
2018-11-06T18:11:53.801Z,9.27
2018-11-06T18:14:20.848Z,9.53
2018-11-06T18:16:47.939Z,9.80
2018-11-06T18:19:15.054Z,9.77
2018-11-06T18:21:42.141Z,9.97
2018-11-06T18:24:09.217Z,9.50
2018-11-06T18:26:36.307Z,8.83
2018-11-06T18:29:03.419Z,9.07
2018-11-06T18:31:30.518Z,9.73
2018-11-06T18:33:57.604Z,10.13
2018-11-06T18:36:24.735Z,9.10
2018-11-06T18:38:51.799Z,9.93
2018-11-06T18:41:18.898Z,9.43
2018-11-06T18:43:45.978Z,9.60
2018-11-06T18:46:13.055Z,9.03
2018-11-06T18:48:40.171Z,9.63
2018-11-06T18:51:07.271Z,9.50
2018-11-06T18:53:34.421Z,9.57
2018-11-06T18:56:01.467Z,10.40
2018-11-06T18:58:28.619Z,9.87
2018-11-06T19:00:55.694Z,9.17
2018-11-06T19:03:22.810Z,10.23
2018-11-06T19:05:49.894Z,9.87
2018-11-06T19:08:16.996Z,10.37
2018-11-06T19:10:44.114Z,9.97
2018-11-06T19:13:11.151Z,9.10
2018-11-06T19:15:38.223Z,9.23
2018-11-06T19:18:05.349Z,9.27
2018-11-06T19:20:32.432Z,9.60
2018-11-06T19:22:59.508Z,9.47
2018-11-06T19:25:26.618Z,9.67
2018-11-06T19:27:53.715Z,9.20
2018-11-06T19:30:20.829Z,9.80
2018-11-06T19:32:48.300Z,10.00
2018-11-06T19:35:15.400Z,9.47
2018-11-06T19:37:42.562Z,10.13
2018-11-06T19:40:11.079Z,10.00
2018-11-06T19:42:38.687Z,10.70
2018-11-06T19:45:06.609Z,9.63
2018-11-06T19:47:33.678Z,9.57
2018-11-06T19:50:00.820Z,9.57
2018-11-06T19:52:27.862Z,10.10
2018-11-06T19:54:54.981Z,9.93
2018-11-06T19:57:22.063Z,10.40
2018-11-06T19:59:49.147Z,9.20
2018-11-06T20:02:16.286Z,9.60
2018-11-06T20:04:43.358Z,10.03
2018-11-06T20:07:10.448Z,10.00
2018-11-06T20:09:37.563Z,10.03
2018-11-06T20:12:04.760Z,9.77
2018-11-06T20:14:31.843Z,9.33
2018-11-06T20:16:58.939Z,9.80
2018-11-06T20:19:26.023Z,9.70
2018-11-06T20:21:53.120Z,10.07
2018-11-06T20:24:20.212Z,9.90
2018-11-06T20:26:47.308Z,10.23
2018-11-06T20:29:14.407Z,8.90
2018-11-06T20:31:41.487Z,10.00
2018-11-06T20:34:08.558Z,9.70
2018-11-06T20:36:35.660Z,10.73
2018-11-06T20:39:04.367Z,9.77
2018-11-06T20:41:31.424Z,9.17
2018-11-06T20:43:58.516Z,9.50
2018-11-06T20:46:25.721Z,9.73
2018-11-06T20:48:52.747Z,9.53
2018-11-06T20:51:19.834Z,9.13
2018-11-06T20:53:46.951Z,9.17
2018-11-06T20:56:14.044Z,9.30
2018-11-06T20:58:41.139Z,8.83
2018-11-06T21:01:08.570Z,10.10
2018-11-06T21:03:35.682Z,9.97
2018-11-06T21:06:02.809Z,8.83
2018-11-06T21:08:29.923Z,9.23
2018-11-06T21:10:57.123Z,9.93
2018-11-06T21:13:24.246Z,9.70
2018-11-06T21:15:51.319Z,10.03
2018-11-06T21:18:18.466Z,9.23
2018-11-06T21:20:45.505Z,10.17
2018-11-06T21:23:12.579Z,9.80
2018-11-06T21:25:39.755Z,10.10
2018-11-06T21:28:06.780Z,9.67
2018-11-06T21:30:33.897Z,9.77
2018-11-06T21:33:00.940Z,9.43
2018-11-06T21:35:28.034Z,8.90
2018-11-06T21:37:55.096Z,10.00
2018-11-06T21:40:22.198Z,9.40
2018-11-06T21:42:49.660Z,8.83
2018-11-06T21:45:17.195Z,9.80
2018-11-06T21:47:45.064Z,8.70
2018-11-06T21:50:13.032Z,9.20
2018-11-06T21:52:40.130Z,9.60
2018-11-06T21:55:08.459Z,9.90
2018-11-06T21:57:35.657Z,10.60
2018-11-06T22:00:02.901Z,9.50
2018-11-06T22:02:29.972Z,10.00
2018-11-06T22:04:57.060Z,10.00
2018-11-06T22:07:24.184Z,9.37
2018-11-06T22:09:51.246Z,10.30
2018-11-06T22:12:18.356Z,9.47
2018-11-06T22:14:45.461Z,9.80
2018-11-06T22:17:12.657Z,9.63
2018-11-06T22:19:39.742Z,10.00
2018-11-06T22:22:06.929Z,9.43
2018-11-06T22:24:33.991Z,9.57
2018-11-06T22:27:01.089Z,8.70
2018-11-06T22:29:28.174Z,9.80
2018-11-06T22:31:55.273Z,9.70
2018-11-06T22:34:22.352Z,9.83
2018-11-06T22:36:49.482Z,9.70
2018-11-06T22:39:16.577Z,10.30
2018-11-06T22:41:43.656Z,10.13
2018-11-06T22:44:10.741Z,9.33
2018-11-06T22:46:37.835Z,9.60
2018-11-06T22:49:05.227Z,10.13
2018-11-06T22:51:32.320Z,10.47
2018-11-06T22:53:59.419Z,9.57
2018-11-06T22:56:26.521Z,9.47
2018-11-06T22:58:53.629Z,9.37
2018-11-06T23:01:24.576Z,10.17
2018-11-06T23:03:52.355Z,9.37
2018-11-06T23:06:20.023Z,9.93
2018-11-06T23:08:47.053Z,9.30
2018-11-06T23:11:14.139Z,9.53
2018-11-06T23:13:41.231Z,9.53
2018-11-06T23:16:08.329Z,9.90
2018-11-06T23:18:35.443Z,9.87
2018-11-06T23:21:02.543Z,9.37
2018-11-06T23:23:29.648Z,10.37
2018-11-06T23:25:56.747Z,9.47
2018-11-06T23:28:23.843Z,9.90
2018-11-06T23:30:50.943Z,9.67
2018-11-06T23:33:18.052Z,9.83
2018-11-06T23:35:45.162Z,10.23
2018-11-06T23:38:12.223Z,9.50
2018-11-06T23:40:39.312Z,9.30
2018-11-06T23:43:06.391Z,10.17
2018-11-06T23:45:33.487Z,9.37
2018-11-06T23:48:00.630Z,8.83
2018-11-06T23:50:27.737Z,9.30
2018-11-06T23:52:54.824Z,8.93
2018-11-06T23:55:21.928Z,9.73
2018-11-06T23:57:49.024Z,8.87
